Terminal Aerodrome Forecast
Issued by NWS Charleston, WV

Current Version | Previous Version | Graphics & Text | Print | Product List | Glossary On
Versions: 1 2 3 4 5 6 7 8 9 10 11 12 13 14 15 16 17 18 19 20 21 22 23 24 25 26
334
FTUS41 KRLX 151500 AAB
TAFHTS
TAF AMD
KHTS 151500Z 1515/1612 05004KT 2SM BR BKN004 OVC010
     FM151630 VRB02KT 5SM BR OVC005
     FM152300 VRB02KT 3SM -RA BR OVC008
     FM160600 00000KT 1 1/2SM BR OVC004=

USA.gov is the U.S. government's official web portal to all federal, state and local government web resources and services.